Time;durP1;ratioP1;P1;durP2;ratioP2;P2;SDS_P1;SDS_P2;PMS_P1;PMS_P2;Temp;Humidity;BMP_temperature;BMP_pressure;BME280_temperature;BME280_humidity;BME280_pressure;Samples;Min_cycle;Max_cycle;Signal;HPM_P1;HPM_P2
2023/05/05 00:01:44;;;;;;;18.50;12.10;;;;;;;;;;4904665;29;20032;-96
2023/05/05 00:04:11;;;;;;;17.20;11.43;;;;;;;;;;4904284;29;20039;-96
2023/05/05 00:06:39;;;;;;;17.40;11.15;;;;;;;;;;4906721;29;20039;-94
2023/05/05 00:09:32;;;;;;;17.33;12.18;;;;;;;;;;4903274;29;20060;-96
2023/05/05 00:12:23;;;;;;;18.98;11.85;;;;;;;;;;4909172;28;20071;-96
2023/05/05 00:15:07;;;;;;;19.92;12.25;;;;;;;;;;4904623;29;20032;-96
2023/05/05 00:20:52;;;;;;;;;;;;;;;;;;;;;
2023/05/05 00:23:40;;;;;;;18.17;11.90;;;;;;;;;;4923222;29;20130;-96
2023/05/05 00:29:45;;;;;;;;;;;;;;;;;;;;;
2023/05/05 00:32:24;;;;;;;15.07;10.35;;;;;;;;;;4922859;29;20028;-96
2023/05/05 00:37:40;;;;;;;13.48;9.82;;;;;;;;;;4967030;23;20052;-95
2023/05/05 00:40:17;;;;;;;17.83;11.02;;;;;;;;;;4929018;29;20067;-94
2023/05/05 00:42:59;;;;;;;;;;;;;;;;;;;;;
2023/05/05 00:45:41;;;;;;;;;;;;;;;;;;;;;
2023/05/05 00:48:24;;;;;;;;;;;;;;;;;;;;;
2023/05/05 00:50:58;;;;;;;13.10;9.40;;;;;;;;;;4934596;29;20043;-96
2023/05/05 00:53:24;;;;;;;;;;;;;;;;;;4933719;29;20122;-96
2023/05/05 01:02:04;;;;;;;15.77;10.82;;;;;;;;;;4906424;29;20077;-94
2023/05/05 01:05:07;;;;;;;17.77;11.30;;;;;;;;;;4939687;29;20036;-95
2023/05/05 01:07:59;;;;;;;;;;;;;;;;;;;;;
2023/05/05 01:10:52;;;;;;;14.55;9.88;;;;;;;;;;4925272;29;20114;-96
2023/05/05 01:13:35;;;;;;;12.90;8.87;;;;;;;;;;4976042;23;20024;31
2023/05/05 01:16:12;;;;;;;16.17;10.52;;;;;;;;;;5074664;23;20517;-94
2023/05/05 01:19:02;;;;;;;18.05;11.27;;;;;;;;;;4933253;29;20024;-91
2023/05/05 01:22:07;;;;;;;;;;;;;;;;;;;;;
2023/05/05 01:25:02;;;;;;;;;;;;;;;;;;;;;
2023/05/05 01:27:58;;;;;;;;;;;;;;;;;;;;;
2023/05/05 01:34:02;;;;;;;14.93;10.18;;;;;;;;;;4877029;29;20040;-95
2023/05/05 01:36:59;;;;;;;;;;;;;;;;;;;;;
2023/05/05 01:42:33;;;;;;;16.23;10.77;;;;;;;;;;4868146;29;20044;-95
2023/05/05 01:45:31;;;;;;;13.15;9.43;;;;;;;;;;4896545;29;20047;-96
2023/05/05 01:48:32;;;;;;;14.88;9.73;;;;;;;;;;4925211;29;20028;-96
2023/05/05 01:51:02;;;;;;;13.02;8.80;;;;;;;;;;4933372;29;20039;-94
2023/05/05 01:56:56;;;;;;;;;;;;;;;;;;;;;
2023/05/05 02:02:48;;;;;;;;;;;;;;;;;;;;;
2023/05/05 02:05:30;;;;;;;13.82;9.27;;;;;;;;;;4920157;29;20096;-96
2023/05/05 02:07:57;;;;;;;13.25;8.77;;;;;;;;;;4924504;29;20126;-94
2023/05/05 02:10:50;;;;;;;11.57;8.13;;;;;;;;;;4927000;29;20452;-96
2023/05/05 02:16:50;;;;;;;12.52;8.65;;;;;;;;;;4917613;29;20107;-96
2023/05/05 02:28:51;;;;;;;14.25;8.88;;;;;;;;;;4809488;29;20075;-93
2023/05/05 02:31:22;;;;;;;15.68;9.70;;;;;;;;;;4828798;29;20037;-96
2023/05/05 02:37:03;;;;;;;12.27;8.43;;;;;;;;;;4894623;23;20517;-96
2023/05/05 02:39:57;;;;;;;;;;;;;;;;;;;;;
2023/05/05 02:42:32;;;;;;;15.20;9.40;;;;;;;;;;4882689;29;20041;-96
2023/05/05 02:45:36;;;;;;;15.20;9.15;;;;;;;;;;4844375;29;20042;-96
2023/05/05 02:48:06;;;;;;;14.63;9.32;;;;;;;;;;4776982;29;20382;-96
2023/05/05 02:50:32;;;;;;;16.13;9.50;;;;;;;;;;4827848;29;20026;-96
2023/05/05 02:53:00;;;;;;;14.27;9.40;;;;;;;;;;4829608;29;20038;-96
2023/05/05 02:55:43;;;;;;;;;;;;;;;;;;;;;
2023/05/05 02:58:27;;;;;;;17.33;9.67;;;;;;;;;;4849219;29;20154;-96
2023/05/05 03:01:06;;;;;;;15.65;9.38;;;;;;;;;;4831010;29;20313;-96
2023/05/05 03:06:50;;;;;;;13.32;9.23;;;;;;;;;;4811055;29;20042;-96
2023/05/05 03:09:56;;;;;;;16.38;9.00;;;;;;;;;;4803495;29;20034;-96
2023/05/05 03:12:41;;;;;;;15.20;8.23;;;;;;;;;;4847010;29;20522;-96
2023/05/05 03:15:17;;;;;;;15.13;8.82;;;;;;;;;;4851993;29;20033;-96
2023/05/05 03:18:15;;;;;;;;;;;;;;;;;;;;;
2023/05/05 03:20:33;;;;;;;14.85;9.63;;;;;;;;;;4866316;29;20060;-96
2023/05/05 03:26:18;;;;;;;12.80;9.15;;;;;;;;;;4845718;29;20033;-96
2023/05/05 03:32:17;;;;;;;16.45;9.80;;;;;;;;;;4936743;23;20469;-96
2023/05/05 03:34:43;;;;;;;14.23;9.15;;;;;;;;;;4890556;29;20051;-94
2023/05/05 03:37:18;;;;;;;15.55;9.13;;;;;;;;;;4915789;29;20064;-96
2023/05/05 03:40:29;;;;;;;15.60;9.90;;;;;;;;;;4909102;29;20043;-96
2023/05/05 03:43:00;;;;;;;13.40;9.73;;;;;;;;;;4913370;29;20024;-96
2023/05/05 03:45:31;;;;;;;16.05;10.23;;;;;;;;;;4905339;29;20127;-96
2023/05/05 03:57:33;;;;;;;18.70;11.85;;;;;;;;;;4865321;29;20545;-96
2023/05/05 03:59:59;;;;;;;18.23;11.45;;;;;;;;;;4841817;29;20050;-96
2023/05/05 04:02:37;;;;;;;18.13;12.98;;;;;;;;;;4849010;29;20551;-96
2023/05/05 04:07:57;;;;;;;22.75;14.50;;;;;;;;;;4864867;29;20112;-95
2023/05/05 04:10:23;;;;;;;23.13;14.90;;;;;;;;;;4850875;29;20086;-96
2023/05/05 04:12:52;;;;;;;23.45;14.98;;;;;;;;;;4846831;29;20038;-94
2023/05/05 04:15:38;;;;;;;22.20;14.30;;;;;;;;;;4830309;29;20037;-96
2023/05/05 04:18:04;;;;;;;26.58;16.48;;;;;;;;;;4829858;29;20033;-94
2023/05/05 04:21:37;;;;;;;;;;;;;;;;;;;;;
2023/05/05 04:24:03;;;;;;;24.52;16.63;;;;;;;;;;4864481;29;20116;-95
2023/05/05 04:26:30;;;;;;;26.80;17.20;;;;;;;;;;4854732;29;20376;-96
2023/05/05 04:28:59;;;;;;;24.65;16.33;;;;;;;;;;4887639;29;20025;-94
2023/05/05 04:31:55;;;;;;;22.25;15.57;;;;;;;;;;4886373;29;20053;-96
2023/05/05 04:34:21;;;;;;;21.55;14.32;;;;;;;;;;4885758;29;20115;-94
2023/05/05 04:37:13;;;;;;;21.98;16.23;;;;;;;;;;4884194;29;20083;-96
2023/05/05 04:40:06;;;;;;;23.45;15.15;;;;;;;;;;4895485;29;20387;-96
2023/05/05 04:42:41;;;;;;;16.77;12.27;;;;;;;;;;4844244;29;20174;-96
2023/05/05 04:45:11;;;;;;;19.90;12.73;;;;;;;;;;4843400;29;20512;-96
2023/05/05 04:53:48;;;;;;;20.83;15.65;;;;;;;;;;4877487;29;20028;-96
2023/05/05 04:56:21;;;;;;;19.77;15.70;;;;;;;;;;4905982;29;20039;-96
2023/05/05 05:02:25;;;;;;;;;;;;;;;;;;;;;
2023/05/05 05:10:07;;;;;;;20.00;17.13;;;;;;;;;;5167456;23;20756;-96
2023/05/05 05:19:05;;;;;;;20.52;15.57;;;;;;;;;;5269998;23;20044;-96
2023/05/05 05:49:57;;;;;;;12.45;9.52;;;;;;;;;;4540739;23;20251;-95
2023/05/05 06:13:20;;;;;;;11.48;8.88;;;;;;;;;;5601662;23;20052;-96
2023/05/05 07:11:44;;;;;;;;;;;;;;;;;;;;;
2023/05/05 07:57:30;;;;;;;;;;;;;;;;;;;;;
2023/05/05 08:00:21;;;;;;;;;;;;;;;;;;4903306;29;20054;-94
2023/05/05 08:12:00;;;;;;;6.95;5.50;;;;;;;;;;4843186;29;19916;-96
2023/05/05 08:30:50;;;;;;;;;;;;;;;;;;;;;
2023/05/05 08:46:02;;;;;;;7.32;5.90;;;;;;;;;;4787382;30;20083;-95
2023/05/05 08:51:54;;;;;;;8.90;6.07;;;;;;;;;;4790426;30;20512;-94
2023/05/05 08:57:18;;;;;;;8.68;6.07;;;;;;;;;;4951879;23;20533;-94
2023/05/05 08:59:48;;;;;;;9.35;6.20;;;;;;;;;;4919686;29;20046;-95
2023/05/05 09:02:22;;;;;;;9.00;6.47;;;;;;;;;;4920370;29;20363;-95
2023/05/05 09:11:05;;;;;;;8.15;6.40;;;;;;;;;;4900496;29;20088;-95
2023/05/05 09:17:29;;;;;;;;;;;;;;;;;;;;;
2023/05/05 09:27:18;;;;;;;;;;;;;;;;;;;;;
2023/05/05 09:29:48;;;;;;;8.15;6.10;;;;;;;;;;4648986;30;20560;-95
2023/05/05 09:45:21;;;;;;;8.45;4.63;;;;;;;;;;4667681;30;20093;-96
2023/05/05 09:50:59;;;;;;;8.02;4.97;;;;;;;;;;4677764;30;20023;-94
2023/05/05 09:56:43;;;;;;;6.85;5.10;;;;;;;;;;4694972;30;20562;-94
2023/05/05 09:59:43;;;;;;;;;;;;;;;;;;;;;
2023/05/05 14:09:32;;;;;;;11.50;5.68;;;;;;;;;;5309269;23;20305;-96
2023/05/05 14:14:59;;;;;;;7.13;5.47;;;;;;;;;;5647278;23;20108;-96
2023/05/05 14:20:14;;;;;;;9.38;5.53;;;;;;;;;;5466937;23;20156;-95
2023/05/05 14:28:35;;;;;;;8.10;5.22;;;;;;;;;;4882834;29;20085;-96
2023/05/05 14:31:01;;;;;;;7.28;4.72;;;;;;;;;;4866999;29;20447;-93
2023/05/05 14:33:29;;;;;;;6.75;4.47;;;;;;;;;;4866393;29;20080;-93
2023/05/05 14:35:55;;;;;;;6.65;4.45;;;;;;;;;;4865834;29;20025;-94
2023/05/05 14:38:21;;;;;;;6.78;4.60;;;;;;;;;;4866802;29;20061;-95
2023/05/05 14:40:47;;;;;;;8.23;4.90;;;;;;;;;;4867142;29;20104;-93
2023/05/05 14:43:13;;;;;;;8.88;5.47;;;;;;;;;;4867043;29;20031;-94
2023/05/05 14:45:40;;;;;;;6.95;5.38;;;;;;;;;;4866095;29;20398;-96
2023/05/05 14:48:06;;;;;;;5.93;4.70;;;;;;;;;;4869503;29;20035;-96
2023/05/05 14:50:32;;;;;;;9.50;5.38;;;;;;;;;;4865382;29;20129;-94
2023/05/05 14:53:02;;;;;;;6.47;4.32;;;;;;;;;;4865098;29;20033;-95
2023/05/05 14:55:28;;;;;;;7.15;5.43;;;;;;;;;;4879725;29;20045;-94
2023/05/05 14:58:00;;;;;;;7.15;4.90;;;;;;;;;;4865965;29;20035;-95
2023/05/05 15:00:26;;;;;;;7.07;4.78;;;;;;;;;;4866940;29;20040;-96
2023/05/05 15:02:55;;;;;;;8.13;5.03;;;;;;;;;;4867677;29;20053;-95
2023/05/05 16:42:40;;;;;;;6.97;4.90;;;;;;;;;;5041750;23;20770;31
2023/05/05 16:45:13;;;;;;;8.90;4.53;;;;;;;;;;4857889;29;20065;-96
2023/05/05 16:50:28;;;;;;;6.18;5.18;;;;;;;;;;5092791;23;20097;-96
2023/05/05 16:52:54;;;;;;;5.90;4.60;;;;;;;;;;4907978;29;20020;-96
2023/05/05 16:55:22;;;;;;;9.80;6.53;;;;;;;;;;4907196;29;20102;-96
2023/05/05 16:57:49;;;;;;;6.28;5.18;;;;;;;;;;4903721;29;20041;-95
2023/05/05 17:00:15;;;;;;;7.65;5.20;;;;;;;;;;4905716;29;20044;-96
2023/05/05 17:02:44;;;;;;;10.18;5.07;;;;;;;;;;4909696;29;20061;-94
2023/05/05 17:25:25;;;;;;;9.43;6.70;;;;;;;;;;4938352;28;20028;-96
2023/05/05 17:30:40;;;;;;;12.20;9.55;;;;;;;;;;5697997;23;20057;-95
2023/05/05 17:33:27;;;;;;;12.45;8.13;;;;;;;;;;4882379;29;20062;-96
2023/05/05 17:35:56;;;;;;;10.35;6.50;;;;;;;;;;4893668;29;20081;-96
2023/05/05 17:38:47;;;;;;;8.32;6.22;;;;;;;;;;5231955;23;20139;-96
2023/05/05 17:47:12;;;;;;;9.10;6.93;;;;;;;;;;5355472;23;20034;-96
2023/05/05 17:49:43;;;;;;;9.55;8.18;;;;;;;;;;4922232;29;20048;-96
2023/05/05 17:52:46;;;;;;;9.68;8.25;;;;;;;;;;4919544;29;20048;-96
2023/05/05 17:57:42;;;;;;;13.05;8.20;;;;;;;;;;4905172;29;20040;-95
2023/05/05 18:09:19;;;;;;;16.90;10.40;;;;;;;;;;4942860;23;20048;-96
2023/05/05 18:11:52;;;;;;;13.07;9.30;;;;;;;;;;4927964;23;20048;-96
2023/05/05 18:14:33;;;;;;;10.32;8.55;;;;;;;;;;4918972;29;20028;-96
2023/05/05 18:36:39;;;;;;;43.03;24.58;;;;;;;;;;5759642;23;20122;-93
2023/05/05 18:39:10;;;;;;;33.78;20.70;;;;;;;;;;4902398;29;20033;-93
2023/05/05 18:41:53;;;;;;;36.55;18.08;;;;;;;;;;4903189;29;20039;-95
2023/05/05 18:44:20;;;;;;;21.08;12.07;;;;;;;;;;4901735;29;20028;-90
2023/05/05 18:46:46;;;;;;;18.02;11.32;;;;;;;;;;4902863;29;20412;-90
2023/05/05 18:49:12;;;;;;;19.63;12.35;;;;;;;;;;4902615;29;20096;-91
2023/05/05 18:51:38;;;;;;;21.67;12.48;;;;;;;;;;4902260;29;20032;-91
2023/05/05 18:54:04;;;;;;;21.88;14.50;;;;;;;;;;4902157;29;20485;-90
2023/05/05 18:56:30;;;;;;;20.08;13.98;;;;;;;;;;4902137;29;20441;-91
2023/05/05 18:58:56;;;;;;;21.33;13.10;;;;;;;;;;4902503;29;20036;-92
2023/05/05 19:01:22;;;;;;;18.70;13.07;;;;;;;;;;4902240;29;20050;-93
2023/05/05 19:03:49;;;;;;;16.85;11.85;;;;;;;;;;4901842;29;20020;-94
2023/05/05 19:06:15;;;;;;;14.73;12.05;;;;;;;;;;4902079;29;20469;-93
2023/05/05 19:08:42;;;;;;;15.27;11.55;;;;;;;;;;4902240;29;20028;-93
2023/05/05 19:11:08;;;;;;;15.18;12.32;;;;;;;;;;4902090;29;20100;-92
2023/05/05 19:13:34;;;;;;;14.95;11.48;;;;;;;;;;4901773;29;20028;-92
2023/05/05 19:16:00;;;;;;;15.02;12.15;;;;;;;;;;4902010;29;20099;-91
2023/05/05 19:18:26;;;;;;;14.32;12.35;;;;;;;;;;4902398;29;20016;-91
2023/05/05 19:20:52;;;;;;;15.20;12.23;;;;;;;;;;4901698;29;20143;-90
2023/05/05 19:23:18;;;;;;;15.27;12.55;;;;;;;;;;4901627;29;20024;-93
2023/05/05 19:25:45;;;;;;;13.30;11.57;;;;;;;;;;4901561;29;20544;-91
2023/05/05 19:28:11;;;;;;;16.33;12.82;;;;;;;;;;4902047;29;20035;-90
2023/05/05 19:30:40;;;;;;;18.55;12.63;;;;;;;;;;4903476;29;20032;-95
2023/05/05 19:33:06;;;;;;;15.77;13.20;;;;;;;;;;4908698;29;20024;-91
2023/05/05 19:35:32;;;;;;;18.60;13.95;;;;;;;;;;4902787;29;20036;-95
2023/05/05 19:37:59;;;;;;;16.42;13.25;;;;;;;;;;4901862;29;20381;-94
2023/05/05 19:40:25;;;;;;;17.35;13.30;;;;;;;;;;4902246;29;20075;-91
2023/05/05 19:42:51;;;;;;;18.02;13.32;;;;;;;;;;4919045;29;20477;-91
2023/05/05 19:45:18;;;;;;;16.52;13.40;;;;;;;;;;4902017;29;20040;-93
2023/05/05 19:47:46;;;;;;;18.55;13.27;;;;;;;;;;4886574;29;20031;-91
2023/05/05 19:50:15;;;;;;;20.30;14.80;;;;;;;;;;4901793;29;20040;-94
2023/05/05 19:52:58;;;;;;;18.13;15.15;;;;;;;;;;4908675;29;20159;-90
2023/05/05 19:55:25;;;;;;;18.27;13.77;;;;;;;;;;4901830;29;20052;-90
2023/05/05 19:57:51;;;;;;;19.55;15.40;;;;;;;;;;4903259;29;20456;-94
2023/05/05 20:00:51;;;;;;;19.92;16.67;;;;;;;;;;4900925;29;20040;-90
2023/05/05 20:03:18;;;;;;;20.80;15.27;;;;;;;;;;4900891;29;20032;-91
2023/05/05 20:05:44;;;;;;;22.27;15.82;;;;;;;;;;4901594;29;20032;-90
2023/05/05 20:08:10;;;;;;;22.30;16.08;;;;;;;;;;4901348;29;20123;-91
2023/05/05 20:10:36;;;;;;;21.02;15.35;;;;;;;;;;4901011;29;20106;-91
2023/05/05 20:13:02;;;;;;;25.15;16.08;;;;;;;;;;4901271;29;20054;-91
2023/05/05 20:15:31;;;;;;;19.30;15.38;;;;;;;;;;4901621;29;20036;-91
2023/05/05 20:17:57;;;;;;;19.52;15.20;;;;;;;;;;4901254;29;20079;-91
2023/05/05 20:20:24;;;;;;;19.60;15.50;;;;;;;;;;4901954;29;20492;-89
2023/05/05 20:22:50;;;;;;;24.00;14.93;;;;;;;;;;4901724;29;20112;-91
2023/05/05 20:28:26;;;;;;;18.45;13.50;;;;;;;;;;4911314;29;20071;-94
2023/05/05 20:30:53;;;;;;;20.17;14.80;;;;;;;;;;4918325;29;20032;-90
2023/05/05 20:33:19;;;;;;;18.63;14.32;;;;;;;;;;4918474;29;20036;-90
2023/05/05 20:35:45;;;;;;;19.25;14.65;;;;;;;;;;4901907;29;20060;-93
2023/05/05 20:38:11;;;;;;;19.10;14.27;;;;;;;;;;4901582;29;20048;-91
2023/05/05 20:40:39;;;;;;;22.15;14.40;;;;;;;;;;4918453;29;20400;-91
2023/05/05 20:43:05;;;;;;;19.70;13.35;;;;;;;;;;4903150;29;20024;-90
2023/05/05 20:45:33;;;;;;;21.08;14.32;;;;;;;;;;4905279;29;20039;-93
2023/05/05 20:47:59;;;;;;;23.35;15.48;;;;;;;;;;4906263;29;20051;-91
2023/05/05 20:50:25;;;;;;;18.38;13.38;;;;;;;;;;4905300;29;20036;-91
2023/05/05 20:52:52;;;;;;;19.42;13.45;;;;;;;;;;4905250;29;20493;-91
2023/05/05 20:55:18;;;;;;;18.58;13.93;;;;;;;;;;4905125;29;20039;-91
2023/05/05 20:57:44;;;;;;;20.20;14.20;;;;;;;;;;4905121;29;20094;-91
2023/05/05 21:00:11;;;;;;;21.00;13.57;;;;;;;;;;4905314;29;20040;-90
2023/05/05 21:02:37;;;;;;;20.30;13.98;;;;;;;;;;4904800;29;20043;-91
2023/05/05 21:05:04;;;;;;;19.95;14.48;;;;;;;;;;4904799;29;20028;-91
2023/05/05 21:07:31;;;;;;;20.65;13.43;;;;;;;;;;4905165;29;20087;-92
2023/05/05 21:09:58;;;;;;;23.88;14.35;;;;;;;;;;4905188;29;20481;-95
2023/05/05 21:12:25;;;;;;;23.20;14.35;;;;;;;;;;4921497;29;20043;-91
2023/05/05 21:14:57;;;;;;;20.40;13.98;;;;;;;;;;4904921;29;20057;-90
2023/05/05 21:17:23;;;;;;;18.15;12.63;;;;;;;;;;4904513;29;20037;-90
2023/05/05 21:19:53;;;;;;;19.70;13.95;;;;;;;;;;4905179;29;20119;-96
2023/05/05 21:22:19;;;;;;;21.10;14.38;;;;;;;;;;4902436;29;20512;-91
2023/05/05 21:24:45;;;;;;;19.98;14.25;;;;;;;;;;4905475;29;20118;-92
2023/05/05 21:27:12;;;;;;;20.48;14.77;;;;;;;;;;4904261;29;20032;-90
2023/05/05 21:29:45;;;;;;;18.88;14.35;;;;;;;;;;4904526;29;20037;-93
2023/05/05 21:32:20;;;;;;;20.17;15.13;;;;;;;;;;4905347;29;20032;-95
2023/05/05 21:34:47;;;;;;;19.67;14.95;;;;;;;;;;4904539;29;20037;-94
2023/05/05 21:37:13;;;;;;;20.63;14.70;;;;;;;;;;4904121;29;20062;-90
2023/05/05 21:39:39;;;;;;;21.10;14.63;;;;;;;;;;4904347;29;20036;-91
2023/05/05 21:42:05;;;;;;;22.85;15.70;;;;;;;;;;4904427;29;20032;-90
2023/05/05 21:44:40;;;;;;;19.77;15.32;;;;;;;;;;4904036;29;20035;-90
2023/05/05 21:50:16;;;;;;;21.13;14.55;;;;;;;;;;4920489;29;20124;-95
2023/05/05 21:52:54;;;;;;;21.60;14.85;;;;;;;;;;4922042;29;20060;-96
2023/05/05 21:55:20;;;;;;;18.70;14.63;;;;;;;;;;4902866;29;20036;-92
2023/05/05 21:57:55;;;;;;;22.40;15.60;;;;;;;;;;4904135;29;20032;-90
2023/05/05 22:00:21;;;;;;;21.17;15.60;;;;;;;;;;4903419;29;20373;-91
2023/05/05 22:02:48;;;;;;;21.05;15.02;;;;;;;;;;4903582;29;20059;-94
2023/05/05 22:05:14;;;;;;;29.55;16.13;;;;;;;;;;4903877;29;20137;-95
2023/05/05 22:07:40;;;;;;;18.33;14.25;;;;;;;;;;4903987;29;20072;-91
2023/05/05 22:10:09;;;;;;;20.98;15.57;;;;;;;;;;4904997;29;20028;-95
2023/05/05 22:12:43;;;;;;;21.42;15.75;;;;;;;;;;4922531;29;20032;-94
2023/05/05 22:15:18;;;;;;;24.33;16.00;;;;;;;;;;4904585;29;20055;-96
2023/05/05 22:17:45;;;;;;;21.98;16.05;;;;;;;;;;4904134;29;20377;-90
2023/05/05 22:20:20;;;;;;;21.27;16.48;;;;;;;;;;4905011;29;20039;-96
2023/05/05 22:22:50;;;;;;;26.30;17.25;;;;;;;;;;4908828;29;20036;-93
2023/05/05 22:25:16;;;;;;;21.77;15.73;;;;;;;;;;4904211;29;20209;-91
2023/05/05 22:27:45;;;;;;;22.17;16.70;;;;;;;;;;4908239;29;20060;-90
2023/05/05 22:30:14;;;;;;;22.13;16.98;;;;;;;;;;4908935;29;20030;-95
2023/05/05 22:35:46;;;;;;;26.83;17.83;;;;;;;;;;4920675;29;20498;-94
2023/05/05 22:38:20;;;;;;;23.38;16.80;;;;;;;;;;4903261;29;20367;-96
2023/05/05 22:40:47;;;;;;;22.80;16.35;;;;;;;;;;4920553;29;20111;-94
2023/05/05 22:43:14;;;;;;;22.95;16.02;;;;;;;;;;4919842;29;20028;-91
2023/05/05 22:45:42;;;;;;;24.90;16.02;;;;;;;;;;4903235;29;20059;-95
2023/05/05 22:48:09;;;;;;;22.95;15.90;;;;;;;;;;4887959;29;20032;-89
2023/05/05 22:50:35;;;;;;;22.27;15.93;;;;;;;;;;4904642;29;20122;-91
2023/05/05 22:53:01;;;;;;;24.52;16.60;;;;;;;;;;4903735;29;20065;-94
2023/05/05 22:58:26;;;;;;;20.83;15.75;;;;;;;;;;4901634;29;20118;-90
2023/05/05 23:00:52;;;;;;;24.38;16.27;;;;;;;;;;4903169;29;20040;-91
2023/05/05 23:03:18;;;;;;;26.15;17.52;;;;;;;;;;4902510;29;20317;-89
2023/05/05 23:05:50;;;;;;;26.33;17.38;;;;;;;;;;4902444;29;20118;-95
2023/05/05 23:08:36;;;;;;;24.17;17.33;;;;;;;;;;4919040;29;20028;-95
2023/05/05 23:11:05;;;;;;;26.05;17.15;;;;;;;;;;4903982;29;20076;-89
2023/05/05 23:13:34;;;;;;;21.90;15.70;;;;;;;;;;4902982;29;20028;-95
2023/05/05 23:16:00;;;;;;;21.38;15.85;;;;;;;;;;4902754;29;20040;-89
2023/05/05 23:18:39;;;;;;;21.63;15.68;;;;;;;;;;4902361;29;20477;-95
2023/05/05 23:21:05;;;;;;;21.33;15.57;;;;;;;;;;4899913;29;20036;-89
2023/05/05 23:23:34;;;;;;;27.02;17.52;;;;;;;;;;4902714;29;20028;-96
2023/05/05 23:26:00;;;;;;;27.38;17.33;;;;;;;;;;4902815;29;20500;-91
2023/05/05 23:28:27;;;;;;;29.25;19.00;;;;;;;;;;4903246;29;20032;-90
2023/05/05 23:31:19;;;;;;;25.63;18.02;;;;;;;;;;4903427;29;20084;-95
2023/05/05 23:33:45;;;;;;;30.17;18.08;;;;;;;;;;4903200;29;20032;-89
2023/05/05 23:36:11;;;;;;;26.20;18.08;;;;;;;;;;4902864;29;20055;-90
2023/05/05 23:38:37;;;;;;;30.83;18.63;;;;;;;;;;4902801;29;20052;-94
2023/05/05 23:41:05;;;;;;;27.52;19.20;;;;;;;;;;4897077;29;20048;-89
2023/05/05 23:43:31;;;;;;;25.60;17.92;;;;;;;;;;4901988;29;20396;-90
2023/05/05 23:46:00;;;;;;;27.75;18.42;;;;;;;;;;4902000;29;20028;-94
2023/05/05 23:48:26;;;;;;;26.63;18.00;;;;;;;;;;4901172;29;20036;-90
2023/05/05 23:50:52;;;;;;;28.70;18.50;;;;;;;;;;4901980;29;20032;-93
2023/05/05 23:53:18;;;;;;;27.73;19.40;;;;;;;;;;4901426;29;20039;-90
2023/05/05 23:55:47;;;;;;;28.35;19.27;;;;;;;;;;4901800;29;20032;-94
2023/05/05 23:58:20;;;;;;;24.15;17.02;;;;;;;;;;4902729;29;20032;-93
